sensor_id;sensor_type;location;lat;lon;timestamp;P1;durP1;ratioP1;P2;durP2;ratioP2
12222;SDS011;6174;49.058;8.524;2023-03-23T05:01:32;1.50;;;1.40;;
12222;SDS011;6174;49.058;8.524;2023-03-23T05:04:01;2.07;;;1.33;;
12222;SDS011;6174;49.058;8.524;2023-03-23T05:06:29;1.63;;;1.53;;
12222;SDS011;6174;49.058;8.524;2023-03-23T05:08:56;1.40;;;1.30;;
12222;SDS011;6174;49.058;8.524;2023-03-23T05:11:22;2.23;;;1.63;;
12222;SDS011;6174;49.058;8.524;2023-03-23T05:13:50;2.00;;;1.40;;
12222;SDS011;6174;49.058;8.524;2023-03-23T05:16:17;2.00;;;1.40;;
12222;SDS011;6174;49.058;8.524;2023-03-23T05:18:45;1.50;;;1.40;;
12222;SDS011;6174;49.058;8.524;2023-03-23T05:21:12;1.47;;;1.37;;
12222;SDS011;6174;49.058;8.524;2023-03-23T05:23:40;1.83;;;1.40;;
12222;SDS011;6174;49.058;8.524;2023-03-23T05:26:07;2.20;;;1.60;;
12222;SDS011;6174;49.058;8.524;2023-03-23T05:28:34;3.03;;;1.50;;
12222;SDS011;6174;49.058;8.524;2023-03-23T05:31:01;1.50;;;1.40;;
12222;SDS011;6174;49.058;8.524;2023-03-23T05:33:28;1.60;;;1.47;;
12222;SDS011;6174;49.058;8.524;2023-03-23T05:35:56;1.60;;;1.50;;
12222;SDS011;6174;49.058;8.524;2023-03-23T05:38:22;1.50;;;1.40;;
12222;SDS011;6174;49.058;8.524;2023-03-23T05:40:49;2.10;;;1.60;;
12222;SDS011;6174;49.058;8.524;2023-03-23T05:43:17;1.87;;;1.53;;
12222;SDS011;6174;49.058;8.524;2023-03-23T05:45:44;1.63;;;1.53;;
12222;SDS011;6174;49.058;8.524;2023-03-23T05:48:10;1.63;;;1.53;;
12222;SDS011;6174;49.058;8.524;2023-03-23T05:50:37;2.67;;;1.70;;
12222;SDS011;6174;49.058;8.524;2023-03-23T05:53:05;3.00;;;1.60;;
12222;SDS011;6174;49.058;8.524;2023-03-23T05:55:32;2.40;;;1.87;;
12222;SDS011;6174;49.058;8.524;2023-03-23T05:57:59;2.13;;;1.73;;
12222;SDS011;6174;49.058;8.524;2023-03-23T06:00:26;3.37;;;2.30;;
12222;SDS011;6174;49.058;8.524;2023-03-23T06:02:55;2.70;;;2.10;;
12222;SDS011;6174;49.058;8.524;2023-03-23T06:05:22;2.00;;;1.80;;
12222;SDS011;6174;49.058;8.524;2023-03-23T06:07:50;3.60;;;1.83;;
12222;SDS011;6174;49.058;8.524;2023-03-23T06:10:19;2.00;;;1.80;;
12222;SDS011;6174;49.058;8.524;2023-03-23T06:12:46;2.60;;;2.20;;
12222;SDS011;6174;49.058;8.524;2023-03-23T06:15:14;2.43;;;2.10;;
12222;SDS011;6174;49.058;8.524;2023-03-23T06:17:40;2.50;;;2.20;;
12222;SDS011;6174;49.058;8.524;2023-03-23T06:20:08;3.10;;;2.70;;
12222;SDS011;6174;49.058;8.524;2023-03-23T06:22:36;3.20;;;2.60;;
12222;SDS011;6174;49.058;8.524;2023-03-23T06:25:04;2.47;;;2.27;;
12222;SDS011;6174;49.058;8.524;2023-03-23T06:27:33;2.50;;;2.30;;
12222;SDS011;6174;49.058;8.524;2023-03-23T06:30:01;2.30;;;2.03;;
12222;SDS011;6174;49.058;8.524;2023-03-23T06:32:28;2.60;;;2.30;;
12222;SDS011;6174;49.058;8.524;2023-03-23T06:34:57;2.00;;;1.90;;
12222;SDS011;6174;49.058;8.524;2023-03-23T06:37:24;3.00;;;2.10;;
12222;SDS011;6174;49.058;8.524;2023-03-23T06:39:51;2.00;;;1.80;;
12222;SDS011;6174;49.058;8.524;2023-03-23T06:42:17;2.47;;;2.27;;
12222;SDS011;6174;49.058;8.524;2023-03-23T06:44:45;2.43;;;2.20;;
12222;SDS011;6174;49.058;8.524;2023-03-23T06:47:12;2.43;;;2.23;;
12222;SDS011;6174;49.058;8.524;2023-03-23T06:49:39;2.33;;;2.13;;
12222;SDS011;6174;49.058;8.524;2023-03-23T06:52:06;2.30;;;1.80;;
12222;SDS011;6174;49.058;8.524;2023-03-23T06:54:33;2.10;;;1.90;;
12222;SDS011;6174;49.058;8.524;2023-03-23T06:56:59;3.30;;;2.23;;
12222;SDS011;6174;49.058;8.524;2023-03-23T06:59:26;3.57;;;1.60;;
12222;SDS011;6174;49.058;8.524;2023-03-23T07:01:55;2.63;;;2.00;;
12222;SDS011;6174;49.058;8.524;2023-03-23T07:04:22;3.03;;;2.07;;
12222;SDS011;6174;49.058;8.524;2023-03-23T07:06:49;2.30;;;2.10;;
12222;SDS011;6174;49.058;8.524;2023-03-23T07:09:16;2.97;;;2.07;;
12222;SDS011;6174;49.058;8.524;2023-03-23T07:11:43;3.80;;;2.10;;
12222;SDS011;6174;49.058;8.524;2023-03-23T07:14:12;3.10;;;2.20;;
12222;SDS011;6174;49.058;8.524;2023-03-23T07:16:39;2.23;;;1.90;;
12222;SDS011;6174;49.058;8.524;2023-03-23T07:19:08;2.90;;;2.07;;
12222;SDS011;6174;49.058;8.524;2023-03-23T07:21:35;2.70;;;2.10;;
12222;SDS011;6174;49.058;8.524;2023-03-23T07:24:02;2.97;;;2.10;;
12222;SDS011;6174;49.058;8.524;2023-03-23T07:26:29;2.73;;;1.83;;
12222;SDS011;6174;49.058;8.524;2023-03-23T07:28:56;2.30;;;2.10;;
12222;SDS011;6174;49.058;8.524;2023-03-23T07:31:23;3.10;;;2.00;;
12222;SDS011;6174;49.058;8.524;2023-03-23T07:33:50;3.60;;;2.17;;
12222;SDS011;6174;49.058;8.524;2023-03-23T07:36:18;3.93;;;2.10;;
12222;SDS011;6174;49.058;8.524;2023-03-23T07:38:45;4.50;;;2.37;;
12222;SDS011;6174;49.058;8.524;2023-03-23T07:41:13;3.93;;;2.23;;
12222;SDS011;6174;49.058;8.524;2023-03-23T07:43:39;2.50;;;2.30;;
12222;SDS011;6174;49.058;8.524;2023-03-23T07:46:07;2.63;;;2.43;;
12222;SDS011;6174;49.058;8.524;2023-03-23T07:48:33;3.60;;;2.10;;
12222;SDS011;6174;49.058;8.524;2023-03-23T07:51:01;2.80;;;2.07;;
12222;SDS011;6174;49.058;8.524;2023-03-23T07:53:29;3.67;;;2.43;;
12222;SDS011;6174;49.058;8.524;2023-03-23T07:55:55;2.50;;;2.30;;
12222;SDS011;6174;49.058;8.524;2023-03-23T07:58:22;2.60;;;2.40;;
12222;SDS011;6174;49.058;8.524;2023-03-23T08:00:51;3.53;;;2.50;;
12222;SDS011;6174;49.058;8.524;2023-03-23T08:03:19;2.60;;;2.13;;
12222;SDS011;6174;49.058;8.524;2023-03-23T08:05:45;3.90;;;2.40;;
12222;SDS011;6174;49.058;8.524;2023-03-23T08:08:12;3.67;;;2.37;;
12222;SDS011;6174;49.058;8.524;2023-03-23T08:10:41;3.53;;;2.60;;
12222;SDS011;6174;49.058;8.524;2023-03-23T08:13:07;2.70;;;2.27;;
12222;SDS011;6174;49.058;8.524;2023-03-23T08:15:35;2.67;;;2.30;;
12222;SDS011;6174;49.058;8.524;2023-03-23T08:18:02;2.43;;;1.97;;
12222;SDS011;6174;49.058;8.524;2023-03-23T08:20:29;2.53;;;2.33;;
12222;SDS011;6174;49.058;8.524;2023-03-23T08:22:57;2.30;;;2.00;;
12222;SDS011;6174;49.058;8.524;2023-03-23T08:25:25;2.50;;;2.00;;
12222;SDS011;6174;49.058;8.524;2023-03-23T08:27:54;2.53;;;2.33;;
12222;SDS011;6174;49.058;8.524;2023-03-23T08:30:21;3.53;;;2.20;;
12222;SDS011;6174;49.058;8.524;2023-03-23T08:32:49;2.93;;;2.13;;
12222;SDS011;6174;49.058;8.524;2023-03-23T08:35:17;2.77;;;2.10;;
12222;SDS011;6174;49.058;8.524;2023-03-23T08:37:45;2.30;;;2.10;;
12222;SDS011;6174;49.058;8.524;2023-03-23T08:40:16;3.43;;;2.10;;
12222;SDS011;6174;49.058;8.524;2023-03-23T08:42:44;3.60;;;2.30;;
12222;SDS011;6174;49.058;8.524;2023-03-23T08:45:15;2.50;;;2.20;;
12222;SDS011;6174;49.058;8.524;2023-03-23T08:47:43;2.50;;;2.23;;
12222;SDS011;6174;49.058;8.524;2023-03-23T08:50:12;2.37;;;2.10;;
12222;SDS011;6174;49.058;8.524;2023-03-23T08:52:39;3.13;;;2.20;;
12222;SDS011;6174;49.058;8.524;2023-03-23T08:55:07;2.93;;;2.20;;
12222;SDS011;6174;49.058;8.524;2023-03-23T08:57:34;2.93;;;2.53;;
12222;SDS011;6174;49.058;8.524;2023-03-23T09:00:02;2.30;;;2.10;;
12222;SDS011;6174;49.058;8.524;2023-03-23T09:02:40;2.47;;;1.80;;
12222;SDS011;6174;49.058;8.524;2023-03-23T09:05:07;2.73;;;2.27;;
12222;SDS011;6174;49.058;8.524;2023-03-23T09:07:35;3.73;;;2.20;;
12222;SDS011;6174;49.058;8.524;2023-03-23T09:10:02;3.13;;;2.30;;
12222;SDS011;6174;49.058;8.524;2023-03-23T09:12:29;1.97;;;1.80;;
12222;SDS011;6174;49.058;8.524;2023-03-23T09:14:55;2.33;;;1.80;;
12222;SDS011;6174;49.058;8.524;2023-03-23T09:17:22;2.17;;;1.93;;
12222;SDS011;6174;49.058;8.524;2023-03-23T09:19:51;1.63;;;1.53;;
12222;SDS011;6174;49.058;8.524;2023-03-23T09:22:18;1.77;;;1.27;;
12222;SDS011;6174;49.058;8.524;2023-03-23T09:24:48;1.70;;;1.60;;
12222;SDS011;6174;49.058;8.524;2023-03-23T09:27:15;1.33;;;1.27;;
12222;SDS011;6174;49.058;8.524;2023-03-23T09:29:42;2.03;;;1.60;;
12222;SDS011;6174;49.058;8.524;2023-03-23T09:32:09;1.60;;;1.50;;
12222;SDS011;6174;49.058;8.524;2023-03-23T09:34:38;1.53;;;1.40;;
12222;SDS011;6174;49.058;8.524;2023-03-23T09:37:07;1.77;;;1.63;;
12222;SDS011;6174;49.058;8.524;2023-03-23T09:39:34;2.70;;;1.60;;
12222;SDS011;6174;49.058;8.524;2023-03-23T09:42:13;1.40;;;1.30;;
12222;SDS011;6174;49.058;8.524;2023-03-23T09:44:53;1.63;;;1.40;;
12222;SDS011;6174;49.058;8.524;2023-03-23T09:47:29;1.97;;;1.60;;
12222;SDS011;6174;49.058;8.524;2023-03-23T09:50:02;1.87;;;1.43;;
12222;SDS011;6174;49.058;8.524;2023-03-23T09:52:37;3.40;;;1.73;;
12222;SDS011;6174;49.058;8.524;2023-03-23T09:55:07;1.30;;;1.20;;
12222;SDS011;6174;49.058;8.524;2023-03-23T09:57:38;2.27;;;1.60;;
12222;SDS011;6174;49.058;8.524;2023-03-23T10:00:12;1.90;;;1.80;;
12222;SDS011;6174;49.058;8.524;2023-03-23T10:02:45;2.03;;;1.50;;
12222;SDS011;6174;49.058;8.524;2023-03-23T10:05:23;1.70;;;1.60;;
12222;SDS011;6174;49.058;8.524;2023-03-23T10:07:57;1.40;;;1.30;;
12222;SDS011;6174;49.058;8.524;2023-03-23T10:10:28;1.93;;;1.70;;
12222;SDS011;6174;49.058;8.524;2023-03-23T10:13:01;1.33;;;1.23;;
12222;SDS011;6174;49.058;8.524;2023-03-23T10:15:33;1.30;;;1.20;;
12222;SDS011;6174;49.058;8.524;2023-03-23T10:18:03;2.03;;;1.30;;
12222;SDS011;6174;49.058;8.524;2023-03-23T10:20:37;1.50;;;1.40;;
12222;SDS011;6174;49.058;8.524;2023-03-23T10:23:20;1.40;;;1.30;;
12222;SDS011;6174;49.058;8.524;2023-03-23T10:26:07;2.50;;;1.47;;
12222;SDS011;6174;49.058;8.524;2023-03-23T10:28:39;1.67;;;1.57;;
12222;SDS011;6174;49.058;8.524;2023-03-23T10:31:10;1.63;;;1.50;;
12222;SDS011;6174;49.058;8.524;2023-03-23T10:33:40;2.67;;;1.60;;
12222;SDS011;6174;49.058;8.524;2023-03-23T10:36:09;1.30;;;1.20;;
12222;SDS011;6174;49.058;8.524;2023-03-23T10:38:41;2.17;;;1.80;;
12222;SDS011;6174;49.058;8.524;2023-03-23T10:41:12;1.50;;;1.40;;
12222;SDS011;6174;49.058;8.524;2023-03-23T10:43:41;1.60;;;1.50;;
12222;SDS011;6174;49.058;8.524;2023-03-23T10:46:13;1.50;;;1.40;;
12222;SDS011;6174;49.058;8.524;2023-03-23T10:48:48;1.20;;;1.10;;
12222;SDS011;6174;49.058;8.524;2023-03-23T10:51:18;1.70;;;1.60;;
12222;SDS011;6174;49.058;8.524;2023-03-23T10:53:51;1.50;;;1.40;;
12222;SDS011;6174;49.058;8.524;2023-03-23T10:56:24;1.60;;;1.33;;
12222;SDS011;6174;49.058;8.524;2023-03-23T10:58:52;2.30;;;1.73;;
12222;SDS011;6174;49.058;8.524;2023-03-23T11:01:20;1.63;;;1.50;;
12222;SDS011;6174;49.058;8.524;2023-03-23T11:03:56;4.00;;;1.73;;
12222;SDS011;6174;49.058;8.524;2023-03-23T11:06:25;1.83;;;1.67;;
12222;SDS011;6174;49.058;8.524;2023-03-23T11:08:56;2.53;;;1.50;;
12222;SDS011;6174;49.058;8.524;2023-03-23T11:11:25;1.40;;;1.30;;
12222;SDS011;6174;49.058;8.524;2023-03-23T11:13:56;1.50;;;1.40;;
12222;SDS011;6174;49.058;8.524;2023-03-23T11:16:25;1.73;;;1.60;;
12222;SDS011;6174;49.058;8.524;2023-03-23T11:18:53;1.90;;;1.50;;
12222;SDS011;6174;49.058;8.524;2023-03-23T11:21:21;1.60;;;1.50;;
12222;SDS011;6174;49.058;8.524;2023-03-23T11:23:50;1.50;;;1.40;;
12222;SDS011;6174;49.058;8.524;2023-03-23T11:26:21;1.80;;;1.70;;
12222;SDS011;6174;49.058;8.524;2023-03-23T11:28:51;2.17;;;1.80;;
12222;SDS011;6174;49.058;8.524;2023-03-23T11:31:22;1.87;;;1.77;;
12222;SDS011;6174;49.058;8.524;2023-03-23T11:33:52;1.77;;;1.67;;
12222;SDS011;6174;49.058;8.524;2023-03-23T11:36:21;2.17;;;1.97;;
12222;SDS011;6174;49.058;8.524;2023-03-23T11:38:56;1.97;;;1.87;;
12222;SDS011;6174;49.058;8.524;2023-03-23T11:41:25;3.23;;;2.30;;
12222;SDS011;6174;49.058;8.524;2023-03-23T11:43:56;2.47;;;2.27;;
12222;SDS011;6174;49.058;8.524;2023-03-23T11:46:27;2.50;;;2.30;;
12222;SDS011;6174;49.058;8.524;2023-03-23T11:49:00;3.47;;;2.43;;
12222;SDS011;6174;49.058;8.524;2023-03-23T11:51:30;2.40;;;2.07;;
12222;SDS011;6174;49.058;8.524;2023-03-23T11:54:04;2.00;;;1.80;;
12222;SDS011;6174;49.058;8.524;2023-03-23T11:56:43;3.37;;;1.80;;
12222;SDS011;6174;49.058;8.524;2023-03-23T11:59:11;3.73;;;1.70;;
12222;SDS011;6174;49.058;8.524;2023-03-23T12:01:46;1.83;;;1.70;;
12222;SDS011;6174;49.058;8.524;2023-03-23T12:04:30;2.10;;;1.90;;
12222;SDS011;6174;49.058;8.524;2023-03-23T12:10:10;3.30;;;1.70;;
12222;SDS011;6174;49.058;8.524;2023-03-23T12:12:55;2.00;;;1.90;;
12222;SDS011;6174;49.058;8.524;2023-03-23T12:15:30;2.60;;;2.27;;
12222;SDS011;6174;49.058;8.524;2023-03-23T12:18:05;1.97;;;1.77;;
12222;SDS011;6174;49.058;8.524;2023-03-23T12:20:40;1.97;;;1.77;;
12222;SDS011;6174;49.058;8.524;2023-03-23T12:23:20;2.00;;;1.80;;
12222;SDS011;6174;49.058;8.524;2023-03-23T12:28:59;2.67;;;1.80;;
12222;SDS011;6174;49.058;8.524;2023-03-23T12:31:36;2.07;;;1.87;;
12222;SDS011;6174;49.058;8.524;2023-03-23T12:34:13;1.70;;;1.60;;
12222;SDS011;6174;49.058;8.524;2023-03-23T12:36:50;2.33;;;1.63;;
12222;SDS011;6174;49.058;8.524;2023-03-23T12:42:25;1.63;;;1.53;;
12222;SDS011;6174;49.058;8.524;2023-03-23T12:45:00;2.00;;;1.50;;
12222;SDS011;6174;49.058;8.524;2023-03-23T12:47:36;2.50;;;1.57;;
12222;SDS011;6174;49.058;8.524;2023-03-23T12:50:11;1.90;;;1.70;;
12222;SDS011;6174;49.058;8.524;2023-03-23T12:52:42;2.17;;;1.77;;
12222;SDS011;6174;49.058;8.524;2023-03-23T12:55:15;2.20;;;1.50;;
12222;SDS011;6174;49.058;8.524;2023-03-23T12:57:45;2.10;;;1.60;;
12222;SDS011;6174;49.058;8.524;2023-03-23T13:00:20;1.87;;;1.77;;
12222;SDS011;6174;49.058;8.524;2023-03-23T13:02:52;2.33;;;2.13;;
12222;SDS011;6174;49.058;8.524;2023-03-23T13:05:28;1.87;;;1.70;;
12222;SDS011;6174;49.058;8.524;2023-03-23T13:08:04;1.73;;;1.50;;
12222;SDS011;6174;49.058;8.524;2023-03-23T13:10:36;1.80;;;1.40;;
12222;SDS011;6174;49.058;8.524;2023-03-23T13:13:08;1.70;;;1.60;;
12222;SDS011;6174;49.058;8.524;2023-03-23T13:15:43;2.73;;;1.40;;
12222;SDS011;6174;49.058;8.524;2023-03-23T13:18:16;1.77;;;1.40;;
12222;SDS011;6174;49.058;8.524;2023-03-23T13:20:53;1.53;;;1.43;;
12222;SDS011;6174;49.058;8.524;2023-03-23T13:23:25;1.73;;;1.60;;
12222;SDS011;6174;49.058;8.524;2023-03-23T13:25:56;1.73;;;1.60;;
12222;SDS011;6174;49.058;8.524;2023-03-23T13:28:27;1.60;;;1.50;;
12222;SDS011;6174;49.058;8.524;2023-03-23T13:30:58;2.23;;;2.03;;
12222;SDS011;6174;49.058;8.524;2023-03-23T13:33:31;1.67;;;1.57;;
12222;SDS011;6174;49.058;8.524;2023-03-23T13:36:04;2.17;;;1.97;;
12222;SDS011;6174;49.058;8.524;2023-03-23T13:38:35;2.57;;;1.70;;
12222;SDS011;6174;49.058;8.524;2023-03-23T13:41:07;2.03;;;1.50;;
12222;SDS011;6174;49.058;8.524;2023-03-23T13:43:36;1.33;;;1.23;;
12222;SDS011;6174;49.058;8.524;2023-03-23T13:46:10;1.90;;;1.60;;
12222;SDS011;6174;49.058;8.524;2023-03-23T13:48:44;1.70;;;1.60;;
12222;SDS011;6174;49.058;8.524;2023-03-23T13:51:23;2.17;;;1.50;;
12222;SDS011;6174;49.058;8.524;2023-03-23T13:54:04;1.90;;;1.80;;
12222;SDS011;6174;49.058;8.524;2023-03-23T13:56:35;2.33;;;1.73;;
12222;SDS011;6174;49.058;8.524;2023-03-23T13:59:06;2.60;;;1.80;;
12222;SDS011;6174;49.058;8.524;2023-03-23T14:01:36;2.80;;;1.80;;
12222;SDS011;6174;49.058;8.524;2023-03-23T14:04:06;2.60;;;1.80;;
12222;SDS011;6174;49.058;8.524;2023-03-23T14:06:36;1.97;;;1.80;;
12222;SDS011;6174;49.058;8.524;2023-03-23T14:09:04;1.80;;;1.70;;
12222;SDS011;6174;49.058;8.524;2023-03-23T14:11:34;2.53;;;1.53;;
12222;SDS011;6174;49.058;8.524;2023-03-23T14:14:14;1.80;;;1.70;;
12222;SDS011;6174;49.058;8.524;2023-03-23T14:16:48;2.03;;;1.77;;
12222;SDS011;6174;49.058;8.524;2023-03-23T14:19:17;1.97;;;1.73;;
12222;SDS011;6174;49.058;8.524;2023-03-23T14:21:51;2.17;;;2.00;;
12222;SDS011;6174;49.058;8.524;2023-03-23T14:24:20;2.10;;;1.83;;
12222;SDS011;6174;49.058;8.524;2023-03-23T14:26:49;2.27;;;2.07;;
12222;SDS011;6174;49.058;8.524;2023-03-23T14:29:18;2.40;;;2.00;;
12222;SDS011;6174;49.058;8.524;2023-03-23T14:31:49;2.47;;;2.23;;
12222;SDS011;6174;49.058;8.524;2023-03-23T14:34:20;2.20;;;2.00;;
12222;SDS011;6174;49.058;8.524;2023-03-23T14:36:49;3.07;;;2.23;;
12222;SDS011;6174;49.058;8.524;2023-03-23T14:39:21;2.30;;;2.10;;
12222;SDS011;6174;49.058;8.524;2023-03-23T14:41:50;2.40;;;2.20;;
12222;SDS011;6174;49.058;8.524;2023-03-23T14:44:26;2.80;;;2.60;;
12222;SDS011;6174;49.058;8.524;2023-03-23T14:46:56;2.40;;;2.20;;
12222;SDS011;6174;49.058;8.524;2023-03-23T14:49:28;2.30;;;2.10;;
12222;SDS011;6174;49.058;8.524;2023-03-23T14:52:02;2.90;;;2.40;;
12222;SDS011;6174;49.058;8.524;2023-03-23T14:54:34;2.33;;;2.13;;
12222;SDS011;6174;49.058;8.524;2023-03-23T14:57:03;3.10;;;2.20;;
12222;SDS011;6174;49.058;8.524;2023-03-23T14:59:39;2.83;;;2.17;;
12222;SDS011;6174;49.058;8.524;2023-03-23T15:02:09;2.20;;;2.00;;
12222;SDS011;6174;49.058;8.524;2023-03-23T15:04:38;2.80;;;2.27;;
12222;SDS011;6174;49.058;8.524;2023-03-23T15:07:05;2.30;;;2.10;;
12222;SDS011;6174;49.058;8.524;2023-03-23T15:09:33;2.40;;;2.20;;
12222;SDS011;6174;49.058;8.524;2023-03-23T15:12:03;2.67;;;2.40;;
12222;SDS011;6174;49.058;8.524;2023-03-23T15:14:31;2.23;;;2.03;;
12222;SDS011;6174;49.058;8.524;2023-03-23T15:17:01;2.40;;;2.03;;
12222;SDS011;6174;49.058;8.524;2023-03-23T15:19:31;2.93;;;2.10;;
12222;SDS011;6174;49.058;8.524;2023-03-23T15:22:04;3.53;;;2.10;;
12222;SDS011;6174;49.058;8.524;2023-03-23T15:24:32;3.67;;;2.07;;
12222;SDS011;6174;49.058;8.524;2023-03-23T15:27:09;3.17;;;2.10;;
12222;SDS011;6174;49.058;8.524;2023-03-23T15:29:48;2.40;;;2.20;;
12222;SDS011;6174;49.058;8.524;2023-03-23T15:32:23;2.43;;;2.20;;
12222;SDS011;6174;49.058;8.524;2023-03-23T15:34:53;3.83;;;2.30;;
12222;SDS011;6174;49.058;8.524;2023-03-23T15:37:21;3.53;;;2.20;;
12222;SDS011;6174;49.058;8.524;2023-03-23T15:39:52;5.80;;;3.50;;
12222;SDS011;6174;49.058;8.524;2023-03-23T15:42:23;5.43;;;4.93;;
12222;SDS011;6174;49.058;8.524;2023-03-23T15:44:55;5.60;;;5.10;;
12222;SDS011;6174;49.058;8.524;2023-03-23T15:47:32;5.10;;;4.63;;
12222;SDS011;6174;49.058;8.524;2023-03-23T15:50:04;6.30;;;4.30;;
12222;SDS011;6174;49.058;8.524;2023-03-23T15:52:35;5.13;;;4.10;;
12222;SDS011;6174;49.058;8.524;2023-03-23T15:55:02;2.80;;;2.50;;
12222;SDS011;6174;49.058;8.524;2023-03-23T15:57:29;3.50;;;3.20;;
12222;SDS011;6174;49.058;8.524;2023-03-23T15:59:56;4.60;;;3.37;;
12222;SDS011;6174;49.058;8.524;2023-03-23T16:02:22;3.17;;;2.83;;
12222;SDS011;6174;49.058;8.524;2023-03-23T16:04:50;2.70;;;2.50;;
12222;SDS011;6174;49.058;8.524;2023-03-23T16:07:20;2.97;;;2.57;;
12222;SDS011;6174;49.058;8.524;2023-03-23T16:09:48;3.67;;;2.50;;
12222;SDS011;6174;49.058;8.524;2023-03-23T16:12:15;2.60;;;2.40;;
12222;SDS011;6174;49.058;8.524;2023-03-23T16:14:42;2.70;;;2.50;;
12222;SDS011;6174;49.058;8.524;2023-03-23T16:17:09;5.70;;;2.87;;
12222;SDS011;6174;49.058;8.524;2023-03-23T16:19:39;4.83;;;2.87;;
12222;SDS011;6174;49.058;8.524;2023-03-23T16:22:07;5.70;;;3.10;;
12222;SDS011;6174;49.058;8.524;2023-03-23T16:24:36;5.03;;;3.00;;
12222;SDS011;6174;49.058;8.524;2023-03-23T16:27:03;3.90;;;2.63;;
12222;SDS011;6174;49.058;8.524;2023-03-23T16:29:30;2.60;;;2.40;;
12222;SDS011;6174;49.058;8.524;2023-03-23T16:31:56;3.77;;;2.60;;
12222;SDS011;6174;49.058;8.524;2023-03-23T16:34:23;2.90;;;2.60;;
12222;SDS011;6174;49.058;8.524;2023-03-23T16:36:52;3.57;;;2.53;;
12222;SDS011;6174;49.058;8.524;2023-03-23T16:39:20;3.43;;;2.83;;
12222;SDS011;6174;49.058;8.524;2023-03-23T16:41:48;3.43;;;2.60;;
12222;SDS011;6174;49.058;8.524;2023-03-23T16:44:15;3.20;;;2.50;;
12222;SDS011;6174;49.058;8.524;2023-03-23T16:46:42;3.17;;;2.40;;
12222;SDS011;6174;49.058;8.524;2023-03-23T16:49:09;3.43;;;2.97;;
12222;SDS011;6174;49.058;8.524;2023-03-23T16:51:35;2.90;;;2.70;;
12222;SDS011;6174;49.058;8.524;2023-03-23T16:54:02;3.20;;;2.90;;
12222;SDS011;6174;49.058;8.524;2023-03-23T16:56:29;4.07;;;3.17;;
12222;SDS011;6174;49.058;8.524;2023-03-23T16:58:57;3.27;;;2.97;;
12222;SDS011;6174;49.058;8.524;2023-03-23T17:01:24;3.30;;;3.00;;
12222;SDS011;6174;49.058;8.524;2023-03-23T17:03:51;2.80;;;2.60;;
12222;SDS011;6174;49.058;8.524;2023-03-23T17:06:18;3.20;;;2.97;;
12222;SDS011;6174;49.058;8.524;2023-03-23T17:08:45;5.13;;;3.50;;
12222;SDS011;6174;49.058;8.524;2023-03-23T17:11:11;4.23;;;3.30;;
12222;SDS011;6174;49.058;8.524;2023-03-23T17:13:38;2.83;;;2.57;;
12222;SDS011;6174;49.058;8.524;2023-03-23T17:16:07;3.73;;;3.10;;
12222;SDS011;6174;49.058;8.524;2023-03-23T17:18:34;4.70;;;3.43;;
12222;SDS011;6174;49.058;8.524;2023-03-23T17:21:01;3.30;;;3.00;;
12222;SDS011;6174;49.058;8.524;2023-03-23T17:23:28;3.63;;;3.10;;
12222;SDS011;6174;49.058;8.524;2023-03-23T17:25:55;4.50;;;3.70;;
12222;SDS011;6174;49.058;8.524;2023-03-23T17:28:23;4.63;;;3.60;;
12222;SDS011;6174;49.058;8.524;2023-03-23T17:30:50;3.93;;;3.63;;
12222;SDS011;6174;49.058;8.524;2023-03-23T17:33:18;3.23;;;3.03;;
12222;SDS011;6174;49.058;8.524;2023-03-23T17:35:45;3.77;;;3.43;;
12222;SDS011;6174;49.058;8.524;2023-03-23T17:38:15;5.10;;;3.40;;
12222;SDS011;6174;49.058;8.524;2023-03-23T17:40:42;3.40;;;3.10;;
12222;SDS011;6174;49.058;8.524;2023-03-23T17:43:09;3.30;;;3.00;;
12222;SDS011;6174;49.058;8.524;2023-03-23T17:45:35;3.70;;;3.37;;
12222;SDS011;6174;49.058;8.524;2023-03-23T17:48:02;3.50;;;3.20;;
12222;SDS011;6174;49.058;8.524;2023-03-23T17:50:32;4.03;;;3.70;;
12222;SDS011;6174;49.058;8.524;2023-03-23T17:52:59;3.80;;;3.50;;
12222;SDS011;6174;49.058;8.524;2023-03-23T17:55:26;3.40;;;2.93;;
12222;SDS011;6174;49.058;8.524;2023-03-23T17:57:53;3.00;;;2.80;;
12222;SDS011;6174;49.058;8.524;2023-03-23T18:00:20;3.70;;;2.93;;
12222;SDS011;6174;49.058;8.524;2023-03-23T18:02:46;4.17;;;2.93;;
12222;SDS011;6174;49.058;8.524;2023-03-23T18:05:13;3.17;;;2.87;;
12222;SDS011;6174;49.058;8.524;2023-03-23T18:07:41;3.87;;;3.00;;
12222;SDS011;6174;49.058;8.524;2023-03-23T18:10:08;3.20;;;2.87;;
12222;SDS011;6174;49.058;8.524;2023-03-23T18:12:36;3.20;;;2.90;;
12222;SDS011;6174;49.058;8.524;2023-03-23T18:15:04;3.10;;;2.90;;
12222;SDS011;6174;49.058;8.524;2023-03-23T18:17:31;3.30;;;3.00;;
12222;SDS011;6174;49.058;8.524;2023-03-23T18:19:58;3.20;;;2.90;;
12222;SDS011;6174;49.058;8.524;2023-03-23T18:22:25;3.23;;;2.93;;
12222;SDS011;6174;49.058;8.524;2023-03-23T18:24:53;3.60;;;3.30;;
12222;SDS011;6174;49.058;8.524;2023-03-23T18:27:22;3.50;;;3.20;;
12222;SDS011;6174;49.058;8.524;2023-03-23T18:29:49;4.83;;;3.33;;
12222;SDS011;6174;49.058;8.524;2023-03-23T18:32:15;4.30;;;3.17;;
12222;SDS011;6174;49.058;8.524;2023-03-23T18:34:43;7.40;;;6.70;;
12222;SDS011;6174;49.058;8.524;2023-03-23T18:37:11;4.40;;;3.90;;
12222;SDS011;6174;49.058;8.524;2023-03-23T18:39:38;4.27;;;3.87;;
12222;SDS011;6174;49.058;8.524;2023-03-23T18:42:07;5.03;;;4.20;;
12222;SDS011;6174;49.058;8.524;2023-03-23T18:44:33;3.90;;;3.60;;
12222;SDS011;6174;49.058;8.524;2023-03-23T18:47:00;5.67;;;3.90;;
12222;SDS011;6174;49.058;8.524;2023-03-23T18:49:27;5.07;;;4.20;;
12222;SDS011;6174;49.058;8.524;2023-03-23T18:51:55;5.03;;;4.40;;
12222;SDS011;6174;49.058;8.524;2023-03-23T18:54:22;5.00;;;4.50;;
12222;SDS011;6174;49.058;8.524;2023-03-23T18:56:48;4.93;;;4.50;;
12222;SDS011;6174;49.058;8.524;2023-03-23T18:59:17;5.47;;;4.43;;
12222;SDS011;6174;49.058;8.524;2023-03-23T19:01:44;4.80;;;4.23;;
12222;SDS011;6174;49.058;8.524;2023-03-23T19:04:10;5.37;;;4.80;;
12222;SDS011;6174;49.058;8.524;2023-03-23T19:06:38;6.00;;;4.97;;
12222;SDS011;6174;49.058;8.524;2023-03-23T19:09:05;5.30;;;3.40;;
12222;SDS011;6174;49.058;8.524;2023-03-23T19:11:32;3.47;;;2.87;;
12222;SDS011;6174;49.058;8.524;2023-03-23T19:13:58;3.90;;;3.47;;
12222;SDS011;6174;49.058;8.524;2023-03-23T19:16:27;3.50;;;3.20;;
12222;SDS011;6174;49.058;8.524;2023-03-23T19:18:55;3.57;;;3.13;;
12222;SDS011;6174;49.058;8.524;2023-03-23T19:21:21;3.73;;;3.03;;
12222;SDS011;6174;49.058;8.524;2023-03-23T19:23:48;3.10;;;2.70;;
12222;SDS011;6174;49.058;8.524;2023-03-23T19:26:18;3.90;;;2.90;;
12222;SDS011;6174;49.058;8.524;2023-03-23T19:28:47;3.43;;;3.13;;
12222;SDS011;6174;49.058;8.524;2023-03-23T19:31:14;4.10;;;3.03;;
12222;SDS011;6174;49.058;8.524;2023-03-23T19:33:44;4.57;;;4.17;;
12222;SDS011;6174;49.058;8.524;2023-03-23T19:36:11;4.70;;;4.10;;
12222;SDS011;6174;49.058;8.524;2023-03-23T19:38:38;3.97;;;3.60;;
12222;SDS011;6174;49.058;8.524;2023-03-23T19:41:04;5.83;;;5.23;;
12222;SDS011;6174;49.058;8.524;2023-03-23T19:43:31;6.03;;;5.30;;
12222;SDS011;6174;49.058;8.524;2023-03-23T19:45:58;7.47;;;6.40;;
12222;SDS011;6174;49.058;8.524;2023-03-23T19:48:25;5.97;;;5.30;;
12222;SDS011;6174;49.058;8.524;2023-03-23T19:50:54;7.80;;;7.03;;
12222;SDS011;6174;49.058;8.524;2023-03-23T19:53:21;14.90;;;11.73;;
12222;SDS011;6174;49.058;8.524;2023-03-23T19:55:48;10.53;;;9.30;;
12222;SDS011;6174;49.058;8.524;2023-03-23T19:58:15;7.00;;;6.30;;
12222;SDS011;6174;49.058;8.524;2023-03-23T20:00:42;5.63;;;5.13;;
12222;SDS011;6174;49.058;8.524;2023-03-23T20:03:08;4.90;;;4.40;;
12222;SDS011;6174;49.058;8.524;2023-03-23T20:05:35;7.77;;;7.00;;
12222;SDS011;6174;49.058;8.524;2023-03-23T20:08:03;5.70;;;5.10;;
12222;SDS011;6174;49.058;8.524;2023-03-23T20:10:31;9.07;;;6.80;;
12222;SDS011;6174;49.058;8.524;2023-03-23T20:12:58;6.77;;;6.17;;
12222;SDS011;6174;49.058;8.524;2023-03-23T20:15:26;28.77;;;25.70;;
12222;SDS011;6174;49.058;8.524;2023-03-23T20:17:52;19.13;;;17.20;;
12222;SDS011;6174;49.058;8.524;2023-03-23T20:20:20;16.77;;;15.23;;
12222;SDS011;6174;49.058;8.524;2023-03-23T20:22:47;12.77;;;11.57;;